Time;durP1;ratioP1;P1;durP2;ratioP2;P2;SDS_P1;SDS_P2;PMS_P1;PMS_P2;Temp;Humidity;BMP_temperature;BMP_pressure;BME280_temperature;BME280_humidity;BME280_pressure;Samples;Min_cycle;Max_cycle;Signal;HPM_P1;HPM_P2
2022/01/27 03:07:26;;;;;;;36.55;15.95;;;6.00;99.90;;;;;;6261309;22;20089;-83
2022/01/27 03:09:54;;;;;;;41.42;17.10;;;6.00;99.90;;;;;;6245418;23;20440;-83
2022/01/27 03:12:23;;;;;;;33.40;16.77;;;6.00;99.90;;;;;;6275037;22;20364;-86
2022/01/27 03:14:49;;;;;;;32.78;15.38;;;6.00;99.90;;;;;;6251168;22;20027;-83
2022/01/27 03:17:15;;;;;;;27.30;13.32;;;6.00;99.90;;;;;;6250513;22;20019;-83
2022/01/27 03:19:41;;;;;;;36.65;15.52;;;6.00;99.90;;;;;;6250559;22;20016;-83
2022/01/27 03:22:07;;;;;;;41.15;16.08;;;6.00;99.90;;;;;;6277939;22;20335;-83
2022/01/27 03:24:33;;;;;;;34.22;15.00;;;6.10;99.90;;;;;;6250542;22;20020;-83
2022/01/27 03:26:59;;;;;;;31.55;14.80;;;6.10;99.90;;;;;;6277557;22;20042;-83
2022/01/27 03:29:25;;;;;;;36.40;13.70;;;6.10;99.90;;;;;;6277497;22;20019;-83
2022/01/27 03:31:52;;;;;;;33.72;14.88;;;6.10;99.90;;;;;;6250490;22;20337;-83
2022/01/27 03:34:17;;;;;;;33.85;14.00;;;6.10;99.90;;;;;;6250467;22;20019;-83
2022/01/27 03:36:43;;;;;;;29.02;13.80;;;6.10;99.90;;;;;;6250508;22;20050;-83
2022/01/27 03:39:09;;;;;;;31.83;14.10;;;6.10;99.90;;;;;;6250824;22;20015;-83
2022/01/27 03:41:37;;;;;;;31.30;14.18;;;6.10;99.90;;;;;;6277532;22;20451;-83
2022/01/27 03:44:04;;;;;;;35.75;13.75;;;6.10;99.90;;;;;;6277465;22;20331;-83
2022/01/27 03:46:30;;;;;;;32.63;13.82;;;6.10;99.90;;;;;;6250273;22;20342;-83
2022/01/27 03:48:56;;;;;;;28.75;14.10;;;6.20;99.90;;;;;;6277035;22;20486;-83
2022/01/27 03:51:22;;;;;;;33.80;14.07;;;6.20;99.90;;;;;;6250351;22;20057;-83
2022/01/27 03:53:48;;;;;;;36.00;14.32;;;6.20;99.90;;;;;;6250315;22;20019;-83
2022/01/27 03:56:13;;;;;;;33.00;11.75;;;6.20;99.90;;;;;;6250299;22;20023;-83
2022/01/27 03:58:39;;;;;;;35.60;12.93;;;6.20;99.90;;;;;;6250241;22;20011;-83
2022/01/27 04:01:05;;;;;;;30.65;12.88;;;6.20;99.90;;;;;;6250351;22;20016;-83
2022/01/27 04:03:34;;;;;;;36.60;12.13;;;6.20;99.90;;;;;;6277363;22;20077;-83
2022/01/27 04:06:06;;;;;;;28.02;12.32;;;6.30;99.90;;;;;;6250075;22;20054;-82
2022/01/27 04:08:37;;;;;;;26.43;12.17;;;6.30;99.90;;;;;;6249968;22;20086;-82
2022/01/27 04:11:07;;;;;;;31.98;12.50;;;6.30;99.90;;;;;;6250103;22;20718;-83
2022/01/27 04:13:33;;;;;;;34.03;13.40;;;6.30;99.90;;;;;;6250056;22;20026;-83
2022/01/27 04:15:59;;;;;;;27.08;11.68;;;6.30;99.90;;;;;;6250152;22;20020;-83
2022/01/27 04:18:25;;;;;;;33.17;13.82;;;6.30;99.90;;;;;;6250069;22;20078;-83
2022/01/27 04:20:51;;;;;;;28.85;12.35;;;6.30;99.90;;;;;;6249986;22;20502;-83
2022/01/27 04:23:18;;;;;;;30.80;11.52;;;6.20;99.90;;;;;;6277135;22;20022;-83
2022/01/27 04:25:45;;;;;;;30.83;11.23;;;6.30;99.90;;;;;;6277443;22;20019;-83
2022/01/27 04:28:13;;;;;;;29.90;12.75;;;6.30;99.90;;;;;;6250522;22;20012;-85
2022/01/27 04:30:39;;;;;;;28.00;10.52;;;6.30;99.90;;;;;;6277454;22;20020;-84
2022/01/27 04:33:06;;;;;;;32.35;12.70;;;6.20;99.90;;;;;;6250087;22;20094;-83
2022/01/27 04:35:36;;;;;;;37.28;12.52;;;6.30;99.90;;;;;;6249857;22;20020;-83
2022/01/27 04:43:37;;;;;;;37.28;12.13;;;6.20;99.90;;;;;;6249973;22;20024;-83
2022/01/27 04:48:38;;;;;;;33.75;12.70;;;6.20;99.90;;;;;;6250019;22;20023;-85
2022/01/27 04:51:12;;;;;;;34.40;12.38;;;6.20;99.90;;;;;;6249881;22;20057;-85
2022/01/27 04:53:44;;;;;;;33.85;14.73;;;6.20;99.90;;;;;;6249983;22;20043;-86
2022/01/27 04:56:13;;;;;;;30.08;13.65;;;6.20;99.90;;;;;;6249927;22;20047;-86
2022/01/27 04:58:40;;;;;;;36.13;13.40;;;6.20;99.90;;;;;;6250267;22;20468;-86
2022/01/27 05:01:06;;;;;;;37.85;12.82;;;6.20;99.90;;;;;;6251891;22;20020;-85
2022/01/27 05:03:41;;;;;;;34.00;12.55;;;6.20;99.90;;;;;;6279033;22;20532;-85
2022/01/27 05:06:07;;;;;;;30.05;12.68;;;6.20;99.90;;;;;;6251927;22;20078;-85
2022/01/27 05:08:33;;;;;;;34.25;12.48;;;6.20;99.90;;;;;;6251610;22;20058;-85
2022/01/27 05:11:08;;;;;;;28.92;13.10;;;6.20;99.90;;;;;;6251763;22;20024;-85
2022/01/27 05:13:48;;;;;;;39.42;13.48;;;6.20;99.90;;;;;;6251917;22;20016;-85
2022/01/27 05:16:13;;;;;;;33.55;12.15;;;6.20;99.90;;;;;;6251860;22;20079;-85
2022/01/27 05:18:39;;;;;;;35.35;11.85;;;6.20;99.90;;;;;;6251890;22;20043;-85
2022/01/27 05:21:05;;;;;;;38.90;13.57;;;6.20;99.90;;;;;;6279230;22;20015;-85
2022/01/27 05:23:30;;;;;;;36.15;12.65;;;6.20;99.90;;;;;;6251769;22;20020;-85
2022/01/27 05:25:56;;;;;;;32.15;12.57;;;6.20;99.90;;;;;;6279104;22;20012;-85
2022/01/27 05:28:22;;;;;;;32.15;12.88;;;6.10;99.90;;;;;;6251624;22;20019;-85
2022/01/27 05:30:48;;;;;;;37.17;13.10;;;6.20;99.90;;;;;;6278710;22;20569;-85
2022/01/27 05:33:13;;;;;;;36.53;12.45;;;6.20;99.90;;;;;;6251790;22;20020;-85
2022/01/27 05:35:39;;;;;;;39.60;12.80;;;6.20;99.90;;;;;;6251595;22;20113;-85
2022/01/27 05:38:05;;;;;;;37.67;12.75;;;6.10;99.90;;;;;;6251600;22;20015;-85
2022/01/27 05:40:31;;;;;;;35.67;12.27;;;6.20;99.90;;;;;;6251586;22;20020;-85
2022/01/27 05:42:56;;;;;;;28.40;12.15;;;6.20;99.90;;;;;;6251638;22;20043;-84
2022/01/27 05:45:22;;;;;;;37.53;13.40;;;6.20;99.90;;;;;;6251594;22;20015;-84
2022/01/27 05:47:47;;;;;;;39.53;13.52;;;6.20;99.90;;;;;;6251405;22;20073;-85
2022/01/27 05:50:13;;;;;;;42.67;13.93;;;6.20;99.90;;;;;;6251534;22;20027;-85
2022/01/27 05:52:39;;;;;;;32.35;13.90;;;6.20;99.90;;;;;;6278909;22;20016;-85
2022/01/27 05:55:05;;;;;;;42.00;13.20;;;6.20;99.90;;;;;;6251553;22;20027;-85
2022/01/27 05:57:31;;;;;;;44.47;14.75;;;6.30;99.90;;;;;;6278825;22;20378;-85
2022/01/27 05:59:56;;;;;;;35.45;12.85;;;6.30;99.90;;;;;;6278859;22;20463;-85
2022/01/27 06:02:23;;;;;;;34.13;13.55;;;6.20;99.90;;;;;;6278846;22;20027;-86
2022/01/27 06:04:49;;;;;;;33.83;12.07;;;6.30;99.90;;;;;;6278823;22;20022;-85
2022/01/27 06:07:15;;;;;;;39.42;14.65;;;6.30;99.90;;;;;;6278413;22;20020;-85
2022/01/27 06:09:40;;;;;;;38.78;13.25;;;6.30;99.90;;;;;;6278129;22;20022;-85
2022/01/27 06:12:07;;;;;;;36.63;13.23;;;6.30;99.90;;;;;;6250986;22;20095;-85
2022/01/27 06:14:32;;;;;;;32.22;13.27;;;6.30;99.90;;;;;;6251290;22;20094;-85
2022/01/27 06:16:58;;;;;;;33.80;13.48;;;6.30;99.90;;;;;;6278667;22;20046;-85
2022/01/27 06:19:27;;;;;;;44.53;14.65;;;6.30;99.90;;;;;;6278678;22;20054;-85
2022/01/27 06:21:52;;;;;;;36.70;12.35;;;6.30;99.90;;;;;;6278291;22;20090;-85
2022/01/27 06:24:18;;;;;;;35.95;13.43;;;6.30;99.90;;;;;;6278612;22;20035;-85
2022/01/27 06:26:44;;;;;;;37.17;12.77;;;6.40;99.90;;;;;;6251136;22;20027;-85
2022/01/27 06:29:09;;;;;;;34.20;13.07;;;6.40;99.90;;;;;;6278435;22;20019;-85
2022/01/27 06:31:35;;;;;;;33.75;12.55;;;6.40;99.90;;;;;;6251111;22;20015;-85
2022/01/27 06:34:01;;;;;;;38.80;13.10;;;6.40;99.90;;;;;;6251113;22;20020;-85
2022/01/27 06:36:26;;;;;;;37.22;13.15;;;6.40;99.90;;;;;;6278464;22;20336;-85
2022/01/27 06:38:52;;;;;;;43.08;13.23;;;6.40;99.90;;;;;;6278449;22;20015;-85
2022/01/27 06:41:18;;;;;;;40.15;12.75;;;6.40;99.90;;;;;;6251030;22;20094;-85
2022/01/27 06:43:43;;;;;;;37.97;11.15;;;6.40;99.90;;;;;;6278802;22;20039;-85
2022/01/27 06:46:09;;;;;;;36.75;12.95;;;6.40;99.90;;;;;;6278044;22;20027;-85
2022/01/27 06:48:35;;;;;;;29.90;12.00;;;6.40;99.90;;;;;;6278282;22;20019;-84
2022/01/27 06:51:04;;;;;;;35.35;12.55;;;6.40;99.90;;;;;;6278319;22;20090;-84
2022/01/27 06:53:29;;;;;;;27.35;11.23;;;6.40;99.90;;;;;;6250853;22;20062;-84
2022/01/27 06:55:55;;;;;;;32.03;10.77;;;6.50;99.90;;;;;;6277958;22;20019;-84
2022/01/27 06:58:21;;;;;;;32.97;11.45;;;6.50;99.90;;;;;;6278240;22;20027;-84
2022/01/27 07:00:47;;;;;;;32.63;10.45;;;6.50;99.90;;;;;;6250913;22;20022;-84
2022/01/27 07:03:13;;;;;;;28.55;10.20;;;6.50;99.90;;;;;;6277810;22;20439;-84
2022/01/27 07:05:40;;;;;;;25.63;9.57;;;6.50;99.90;;;;;;6277825;22;20016;-84
2022/01/27 07:08:06;;;;;;;30.52;10.52;;;6.50;99.90;;;;;;6250431;22;20087;-84
2022/01/27 07:10:31;;;;;;;28.88;11.05;;;6.60;99.90;;;;;;6278650;22;20055;-84
2022/01/27 07:12:57;;;;;;;25.83;10.10;;;6.60;99.90;;;;;;6250884;22;20081;-85
2022/01/27 07:15:23;;;;;;;33.67;10.77;;;6.60;99.90;;;;;;6278190;22;20420;-85
2022/01/27 07:17:49;;;;;;;32.17;9.77;;;6.60;99.90;;;;;;6250622;22;20016;-85
2022/01/27 07:20:15;;;;;;;31.88;10.23;;;6.60;99.90;;;;;;6250655;22;20386;-85
2022/01/27 07:22:41;;;;;;;31.65;9.48;;;6.60;99.90;;;;;;6277632;22;20066;-85
2022/01/27 07:25:07;;;;;;;33.97;11.23;;;6.60;99.90;;;;;;6278071;22;20023;-85
2022/01/27 07:27:34;;;;;;;28.30;9.35;;;6.60;99.90;;;;;;6250419;22;20440;-85
2022/01/27 07:30:00;;;;;;;30.67;8.98;;;6.60;99.90;;;;;;6249839;22;20019;-85
2022/01/27 07:32:26;;;;;;;30.45;9.23;;;6.70;99.90;;;;;;6249823;22;20064;-85
2022/01/27 07:34:52;;;;;;;33.70;8.25;;;6.70;99.90;;;;;;6250293;22;20016;-85
2022/01/27 07:37:17;;;;;;;31.10;9.60;;;6.60;99.90;;;;;;6250364;22;20015;-85
2022/01/27 07:39:43;;;;;;;35.88;9.27;;;6.60;99.90;;;;;;6250265;22;20011;-85
2022/01/27 07:42:09;;;;;;;36.85;9.13;;;6.60;99.90;;;;;;6250188;22;20024;-85
2022/01/27 07:44:35;;;;;;;29.77;9.43;;;6.60;99.90;;;;;;6277589;22;20008;-85
2022/01/27 07:47:00;;;;;;;29.88;9.40;;;6.70;99.90;;;;;;6250188;22;20077;-85
2022/01/27 07:49:26;;;;;;;29.13;8.65;;;6.70;99.90;;;;;;6277377;22;20016;-86
2022/01/27 07:51:52;;;;;;;27.30;8.35;;;6.70;99.90;;;;;;6277321;22;20020;-86
2022/01/27 07:54:18;;;;;;;27.02;6.90;;;6.70;99.90;;;;;;6250137;22;20008;-85
2022/01/27 07:56:43;;;;;;;25.92;8.73;;;6.80;99.90;;;;;;6277554;22;20019;-86
2022/01/27 07:59:09;;;;;;;33.50;8.25;;;6.70;99.90;;;;;;6249993;22;20019;-86
2022/01/27 08:01:35;;;;;;;33.78;8.88;;;6.80;99.90;;;;;;6250089;22;20447;-85
2022/01/27 08:04:00;;;;;;;30.58;7.40;;;6.80;99.90;;;;;;6277111;22;20455;-84
2022/01/27 08:06:26;;;;;;;28.60;8.10;;;6.80;99.90;;;;;;6277442;22;20012;-86
2022/01/27 08:08:52;;;;;;;32.10;7.22;;;6.80;99.90;;;;;;6249630;22;20020;-85
2022/01/27 08:11:19;;;;;;;28.27;8.00;;;6.80;99.90;;;;;;6276295;22;20511;-83
2022/01/27 08:13:45;;;;;;;30.02;8.70;;;6.90;99.90;;;;;;6277262;22;20022;-81
2022/01/27 08:16:10;;;;;;;28.33;7.95;;;6.90;99.90;;;;;;6277155;22;20035;-81
2022/01/27 08:18:36;;;;;;;30.05;7.80;;;6.90;99.90;;;;;;6277031;22;20015;-81
2022/01/27 08:21:02;;;;;;;31.48;8.30;;;6.90;99.90;;;;;;6277084;22;20061;-83
2022/01/27 08:23:28;;;;;;;25.52;8.15;;;6.90;99.90;;;;;;6276784;22;20455;-82
2022/01/27 08:26:04;;;;;;;28.58;6.40;;;7.00;99.90;;;;;;6277114;22;20015;-82
2022/01/27 08:28:41;;;;;;;22.42;6.53;;;7.00;99.90;;;;;;6276946;22;20525;-81
2022/01/27 08:31:07;;;;;;;30.65;6.85;;;7.00;99.90;;;;;;6277012;22;20011;-79
2022/01/27 08:33:34;;;;;;;25.40;7.32;;;7.10;99.90;;;;;;6276838;22;20105;-80
2022/01/27 08:36:00;;;;;;;20.02;6.75;;;7.10;99.90;;;;;;6277007;22;20077;-81
2022/01/27 08:38:29;;;;;;;25.17;6.30;;;7.20;99.90;;;;;;6249434;22;20339;-81
2022/01/27 08:40:59;;;;;;;27.63;6.63;;;7.20;99.90;;;;;;6276617;22;20047;-80
2022/01/27 08:43:24;;;;;;;24.52;5.95;;;7.20;99.90;;;;;;6276666;22;20448;-80
2022/01/27 08:45:50;;;;;;;24.35;5.93;;;7.20;99.90;;;;;;6249581;22;20019;-84
2022/01/27 08:48:18;;;;;;;29.80;7.15;;;7.20;99.90;;;;;;6276501;22;20016;-81
2022/01/27 08:50:58;;;;;;;25.30;6.40;;;7.20;99.90;;;;;;6276700;22;20077;-81
2022/01/27 08:53:25;;;;;;;31.92;6.95;;;7.20;99.90;;;;;;6276997;22;20012;-83
2022/01/27 08:55:51;;;;;;;25.60;6.80;;;7.20;99.90;;;;;;6276625;22;20509;-83
2022/01/27 08:58:16;;;;;;;26.10;6.35;;;7.20;99.90;;;;;;6276914;22;20020;-81
2022/01/27 09:00:42;;;;;;;19.95;6.13;;;7.20;99.90;;;;;;6276901;22;20015;-82
2022/01/27 09:03:08;;;;;;;21.40;5.15;;;7.30;99.90;;;;;;6276657;22;20015;-83
2022/01/27 09:05:35;;;;;;;29.33;5.85;;;7.40;99.90;;;;;;6275885;22;20321;-82
2022/01/27 09:08:01;;;;;;;31.80;6.18;;;7.50;99.90;;;;;;6248974;22;20014;-82
2022/01/27 09:10:31;;;;;;;23.80;5.53;;;7.40;99.90;;;;;;6249422;22;20020;-82
2022/01/27 09:13:03;;;;;;;21.38;6.88;;;7.30;99.90;;;;;;6276829;22;20083;-82
2022/01/27 09:15:30;;;;;;;27.77;6.53;;;7.40;99.90;;;;;;6249618;22;20049;-81
2022/01/27 09:17:58;;;;;;;25.60;6.63;;;7.40;99.90;;;;;;6276800;22;20015;-81
2022/01/27 09:20:24;;;;;;;24.30;5.45;;;7.40;99.90;;;;;;6249369;22;20097;-81
2022/01/27 09:22:52;;;;;;;17.05;5.95;;;7.50;99.90;;;;;;6249278;22;20020;-83
2022/01/27 09:25:23;;;;;;;17.83;5.78;;;7.50;99.90;;;;;;6249288;22;20451;-83
2022/01/27 09:27:49;;;;;;;23.27;5.50;;;7.50;99.90;;;;;;6248989;22;20019;-83
2022/01/27 09:30:17;;;;;;;28.13;6.53;;;7.50;99.90;;;;;;6276437;22;20390;-82
2022/01/27 09:32:43;;;;;;;26.83;5.80;;;7.50;99.90;;;;;;6276348;22;20436;-81
2022/01/27 09:35:10;;;;;;;25.83;6.68;;;7.50;99.90;;;;;;6276622;22;20024;-81
2022/01/27 09:37:36;;;;;;;28.98;6.03;;;7.60;99.90;;;;;;6276713;22;20016;-81
2022/01/27 09:40:03;;;;;;;23.65;4.85;;;7.60;99.90;;;;;;6276740;22;20018;-81
2022/01/27 09:42:33;;;;;;;19.90;5.28;;;7.60;99.90;;;;;;6276359;22;20324;-81
2022/01/27 09:45:02;;;;;;;21.52;5.82;;;7.60;99.90;;;;;;6276463;22;20020;-84
2022/01/27 09:47:30;;;;;;;21.65;5.65;;;7.70;99.90;;;;;;6251032;22;20331;-81
2022/01/27 09:50:07;;;;;;;21.40;5.00;;;7.70;99.90;;;;;;6278346;22;20024;-82
2022/01/27 09:52:33;;;;;;;24.10;5.43;;;7.80;99.90;;;;;;6278624;22;20023;-83
2022/01/27 09:54:59;;;;;;;22.75;5.03;;;7.90;99.90;;;;;;6250548;22;20015;-82
2022/01/27 09:57:24;;;;;;;23.73;4.75;;;7.90;99.90;;;;;;6278163;22;20505;-82
2022/01/27 09:59:50;;;;;;;18.10;4.97;;;7.90;99.90;;;;;;6250783;22;20016;-83
2022/01/27 10:02:18;;;;;;;17.08;5.63;;;7.90;99.90;;;;;;6278441;22;20069;-83
2022/01/27 10:04:58;;;;;;;28.52;5.70;;;7.90;99.90;;;;;;6251379;22;20015;-83
2022/01/27 10:07:30;;;;;;;24.98;5.80;;;7.90;99.90;;;;;;6278423;22;20016;-83
2022/01/27 10:10:13;;;;;;;32.70;6.65;;;8.00;99.90;;;;;;6250901;22;20086;-82
2022/01/27 10:12:50;;;;;;;26.25;6.50;;;7.90;99.90;;;;;;6278515;22;20014;-82
2022/01/27 10:15:22;;;;;;;22.83;4.80;;;8.00;99.90;;;;;;6277392;22;20344;-82
2022/01/27 10:18:14;;;;;;;27.23;6.40;;;8.00;99.90;;;;;;6250897;22;20026;-82
2022/01/27 10:21:00;;;;;;;21.45;6.10;;;8.00;99.90;;;;;;6278319;22;20023;-82
2022/01/27 10:23:30;;;;;;;22.50;6.18;;;8.00;99.90;;;;;;6278262;22;20133;-82
2022/01/27 10:26:07;;;;;;;21.20;7.70;;;8.10;99.90;;;;;;6250777;22;20352;-82
2022/01/27 10:28:43;;;;;;;24.25;8.18;;;8.10;99.90;;;;;;6277931;22;20020;-82
2022/01/27 10:31:21;;;;;;;28.35;6.15;;;8.10;99.90;;;;;;6278150;22;20015;-82
2022/01/27 10:34:07;;;;;;;26.58;5.45;;;8.20;99.90;;;;;;6250653;22;20073;-82
2022/01/27 10:36:41;;;;;;;30.55;7.32;;;8.20;99.90;;;;;;6276834;22;20089;-81
2022/01/27 10:39:11;;;;;;;23.60;5.85;;;8.20;99.90;;;;;;6278090;22;20011;-82
2022/01/27 10:41:53;;;;;;;26.10;5.45;;;8.20;99.90;;;;;;6278070;22;20090;-82
2022/01/27 10:44:19;;;;;;;26.27;5.28;;;8.20;99.90;;;;;;6277995;22;20015;-83
2022/01/27 10:47:05;;;;;;;19.58;5.40;;;8.20;99.90;;;;;;6278042;22;20008;-82
2022/01/27 10:49:35;;;;;;;33.30;5.78;;;8.20;99.90;;;;;;6277957;22;20023;-82
2022/01/27 10:52:00;;;;;;;25.65;6.40;;;8.20;99.90;;;;;;6277751;22;20055;-82
2022/01/27 10:54:43;;;;;;;21.27;6.30;;;8.20;99.90;;;;;;6277937;22;20062;-82
2022/01/27 10:57:11;;;;;;;31.92;6.32;;;8.20;99.90;;;;;;6277531;22;20015;-82
2022/01/27 10:59:37;;;;;;;25.35;6.57;;;8.20;99.90;;;;;;6277890;22;20073;-82
2022/01/27 11:02:11;;;;;;;33.78;5.60;;;8.20;99.90;;;;;;6250454;22;20020;-82
2022/01/27 11:04:43;;;;;;;25.10;6.00;;;8.20;99.90;;;;;;6277609;22;20019;-82
2022/01/27 11:07:11;;;;;;;25.80;5.40;;;8.30;99.90;;;;;;6277402;22;20023;-82
2022/01/27 11:09:44;;;;;;;25.73;4.80;;;8.30;99.90;;;;;;6250142;22;20020;-82
2022/01/27 11:12:17;;;;;;;27.70;6.15;;;8.30;99.90;;;;;;6277825;22;20072;-81
2022/01/27 11:14:44;;;;;;;29.08;5.53;;;8.40;99.90;;;;;;6249514;22;20023;-82
2022/01/27 11:17:17;;;;;;;24.50;4.75;;;8.40;99.90;;;;;;6275182;22;20476;-80
2022/01/27 11:22:42;;;;;;;21.33;5.70;;;8.50;99.90;;;;;;6277542;22;20089;-81
2022/01/27 11:25:55;;;;;;;27.00;6.85;;;8.50;99.90;;;;;;6276176;22;20043;-80
2022/01/27 11:28:00;;;;;;;24.88;4.75;;;8.50;99.90;;;;;;6263435;22;20016;-80
2022/01/27 11:31:07;;;;;;;30.45;5.35;;;8.50;99.90;;;;;;6276142;22;20018;-80
2022/01/27 11:33:34;;;;;;;28.73;4.38;;;8.60;99.90;;;;;;6277553;22;20081;-79
2022/01/27 11:36:15;;;;;;;17.50;2.97;;;8.70;99.90;;;;;;6277530;22;20016;-80
2022/01/27 11:38:43;;;;;;;19.00;4.45;;;8.70;99.90;;;;;;6249989;22;20026;-80
2022/01/27 11:41:34;;;;;;;21.20;5.68;;;8.70;99.90;;;;;;6250013;22;20012;-81
2022/01/27 11:44:22;;;;;;;23.08;4.90;;;8.70;99.90;;;;;;6249966;22;20459;-80
2022/01/27 11:50:02;;;;;;;26.95;4.95;;;8.60;99.90;;;;;;6277233;22;20024;-79
2022/01/27 11:52:30;;;;;;;20.58;4.32;;;8.70;99.90;;;;;;6250011;22;20022;-83
2022/01/27 11:54:58;;;;;;;33.53;5.38;;;8.60;99.90;;;;;;6249810;22;20095;-78
2022/01/27 11:57:43;;;;;;;28.98;4.88;;;8.60;99.90;;;;;;6277280;22;20020;-80
2022/01/27 12:00:11;;;;;;;26.13;6.57;;;8.60;99.90;;;;;;6276828;22;20114;-80
2022/01/27 12:02:58;;;;;;;32.35;6.88;;;8.60;99.90;;;;;;6276858;22;20448;-79
2022/01/27 12:05:25;;;;;;;31.90;4.68;;;8.60;99.90;;;;;;6273896;22;20448;-78
2022/01/27 12:08:11;;;;;;;22.17;3.97;;;8.60;99.90;;;;;;6249256;22;20031;-78
2022/01/27 12:11:09;;;;;;;24.10;4.63;;;8.60;99.90;;;;;;6277063;22;20031;-79
2022/01/27 12:13:43;;;;;;;26.98;5.03;;;8.60;99.90;;;;;;6273346;22;20073;-81
2022/01/27 12:19:01;;;;;;;24.92;4.50;;;8.60;99.90;;;;;;6276735;22;20022;-78
2022/01/27 12:21:38;;;;;;;24.23;5.35;;;8.60;99.90;;;;;;6277100;22;20027;-83
2022/01/27 12:24:13;;;;;;;18.35;3.40;;;8.60;99.90;;;;;;6248168;22;20012;-79
2022/01/27 12:26:49;;;;;;;26.48;3.63;;;8.60;99.90;;;;;;6277008;22;20016;-79
2022/01/27 12:29:24;;;;;;;25.42;3.72;;;8.70;99.90;;;;;;6276864;22;20015;-80
2022/01/27 12:31:51;;;;;;;22.58;3.03;;;8.70;99.90;;;;;;6249508;22;20015;-79
2022/01/27 12:34:18;;;;;;;20.08;3.88;;;8.70;99.90;;;;;;6249529;22;20047;-80
2022/01/27 12:36:59;;;;;;;21.67;4.75;;;8.80;99.90;;;;;;6249566;22;20012;-80
2022/01/27 12:39:28;;;;;;;30.92;4.50;;;8.80;99.90;;;;;;6276700;22;20023;-81
2022/01/27 12:41:54;;;;;;;22.45;4.82;;;8.70;99.90;;;;;;6249504;22;20448;-78
2022/01/27 12:44:22;;;;;;;22.73;4.07;;;8.60;99.90;;;;;;6277066;22;20026;-78
2022/01/27 12:47:08;;;;;;;27.13;4.22;;;8.60;99.90;;;;;;6249542;22;20090;-80
2022/01/27 12:49:38;;;;;;;27.85;4.78;;;8.70;99.90;;;;;;6249290;22;20030;-78
2022/01/27 12:52:07;;;;;;;25.25;3.40;;;8.70;99.90;;;;;;6249831;22;20463;-76
2022/01/27 12:54:33;;;;;;;21.08;4.38;;;8.70;99.90;;;;;;6249499;22;20012;-82
2022/01/27 12:56:59;;;;;;;23.25;4.45;;;8.70;99.90;;;;;;6249583;22;20018;-81
2022/01/27 12:59:33;;;;;;;30.25;5.15;;;8.70;99.90;;;;;;6249459;22;20392;-79
2022/01/27 13:02:02;;;;;;;29.48;5.18;;;8.60;99.90;;;;;;6249488;22;20023;-78
2022/01/27 13:04:28;;;;;;;28.98;4.35;;;8.60;99.90;;;;;;6276970;22;20015;-79
2022/01/27 13:06:56;;;;;;;24.90;4.35;;;8.60;99.90;;;;;;6249514;22;20015;-78
2022/01/27 13:09:22;;;;;;;28.33;4.10;;;8.50;99.90;;;;;;6276379;22;20020;-80
2022/01/27 13:11:51;;;;;;;19.88;2.78;;;8.50;99.90;;;;;;6276870;22;20137;-80
2022/01/27 13:14:16;;;;;;;19.80;4.75;;;8.50;99.90;;;;;;6276549;22;20020;-78
2022/01/27 13:16:48;;;;;;;26.42;4.28;;;8.50;99.90;;;;;;6249291;22;20335;-81
2022/01/27 13:19:27;;;;;;;27.65;4.38;;;8.40;99.90;;;;;;6276503;22;20087;-81
2022/01/27 13:22:06;;;;;;;27.70;4.95;;;8.40;99.90;;;;;;6277915;22;20321;-81
2022/01/27 13:24:34;;;;;;;19.65;3.13;;;8.40;99.90;;;;;;6278843;22;20023;-78
2022/01/27 13:27:12;;;;;;;26.77;3.58;;;8.30;99.90;;;;;;6278447;22;20246;-78
2022/01/27 13:29:47;;;;;;;25.08;3.00;;;8.40;99.90;;;;;;6278401;22;20459;-86
2022/01/27 13:32:14;;;;;;;22.52;3.85;;;8.40;99.90;;;;;;6251613;22;20020;-80
2022/01/27 13:34:49;;;;;;;23.73;4.75;;;8.40;99.90;;;;;;6278385;22;20051;-79
2022/01/27 13:37:31;;;;;;;25.00;4.13;;;8.30;99.90;;;;;;6278205;22;20451;-80
2022/01/27 13:42:23;;;;;;;19.73;3.92;;;8.20;99.90;;;;;;6251192;22;20020;-81
2022/01/27 13:45:00;;;;;;;26.13;3.55;;;8.20;99.90;;;;;;6251129;22;20029;-81
2022/01/27 13:47:29;;;;;;;27.20;4.85;;;8.30;99.90;;;;;;6251412;22;20455;-81
2022/01/27 13:50:07;;;;;;;24.67;4.22;;;8.20;99.90;;;;;;6251204;22;20025;-81
2022/01/27 13:52:59;;;;;;;25.58;4.18;;;8.20;99.90;;;;;;6278398;22;20074;-81
2022/01/27 13:55:25;;;;;;;20.52;3.35;;;8.20;99.90;;;;;;6245540;22;20012;-82
2022/01/27 13:58:02;;;;;;;28.08;6.63;;;8.30;99.90;;;;;;6278639;22;20394;-82
2022/01/27 14:00:39;;;;;;;19.67;3.35;;;8.30;99.90;;;;;;6278428;22;20022;-81
2022/01/27 14:03:13;;;;;;;23.45;5.25;;;8.40;99.90;;;;;;6278655;22;20015;-81
2022/01/27 14:05:40;;;;;;;26.23;4.90;;;8.30;99.90;;;;;;6251229;22;20023;-81
2022/01/27 14:08:06;;;;;;;25.63;3.83;;;8.30;99.90;;;;;;6249712;22;20440;-80
2022/01/27 14:10:41;;;;;;;27.38;4.00;;;8.30;99.90;;;;;;6278392;22;20055;-80
2022/01/27 14:13:15;;;;;;;26.80;3.55;;;8.20;99.90;;;;;;6278464;22;20020;-82
2022/01/27 14:15:48;;;;;;;32.22;5.25;;;8.20;99.90;;;;;;6251005;22;20030;-81
2022/01/27 14:18:20;;;;;;;22.70;3.83;;;8.20;99.90;;;;;;6250928;22;20016;-79
2022/01/27 14:21:01;;;;;;;19.10;4.10;;;8.20;99.90;;;;;;6278523;22;20094;-79
2022/01/27 14:23:45;;;;;;;21.17;3.63;;;8.20;99.90;;;;;;6278337;22;20012;-80
2022/01/27 14:26:37;;;;;;;;;;;8.30;99.90;;;;;;6278825;22;20019;-80
2022/01/27 14:29:14;;;;;;;33.75;4.18;;;8.20;99.90;;;;;;6250753;22;19977;-79
2022/01/27 14:31:47;;;;;;;24.42;3.75;;;8.10;99.90;;;;;;6277666;22;20098;-79
2022/01/27 14:34:33;;;;;;;33.45;4.18;;;8.20;99.90;;;;;;6278187;22;20064;-80
2022/01/27 14:37:00;;;;;;;22.67;3.28;;;8.20;99.90;;;;;;6250822;22;20046;-79
2022/01/27 14:39:26;;;;;;;18.98;4.18;;;8.20;99.90;;;;;;6278235;22;20012;-79
2022/01/27 14:41:52;;;;;;;23.30;4.10;;;8.20;99.90;;;;;;6277458;22;20019;-79
2022/01/27 14:44:18;;;;;;;25.65;4.22;;;8.20;99.90;;;;;;6250597;22;20019;-78
2022/01/27 14:46:46;;;;;;;16.90;3.53;;;8.10;99.90;;;;;;6250709;22;20019;-78
2022/01/27 14:49:14;;;;;;;26.90;3.22;;;8.10;99.90;;;;;;6250520;22;20020;-78
2022/01/27 14:51:42;;;;;;;23.38;3.42;;;8.10;99.90;;;;;;6278160;22;20020;-78
2022/01/27 14:54:08;;;;;;;29.70;4.03;;;8.10;99.90;;;;;;6278007;22;20046;-78
2022/01/27 14:56:34;;;;;;;23.90;6.28;;;8.00;99.90;;;;;;6277614;22;20393;-78
2022/01/27 14:59:03;;;;;;;17.40;3.25;;;8.00;99.90;;;;;;6277920;22;20043;-78
2022/01/27 15:01:29;;;;;;;21.42;3.45;;;8.00;99.90;;;;;;6277613;22;20023;-78
2022/01/27 15:03:55;;;;;;;18.50;3.67;;;8.00;99.90;;;;;;6277953;22;20019;-78
2022/01/27 15:06:22;;;;;;;18.40;2.65;;;8.00;99.90;;;;;;6250337;22;20023;-79
2022/01/27 15:08:49;;;;;;;24.23;2.83;;;8.00;99.90;;;;;;6277243;22;20019;-79
2022/01/27 15:11:14;;;;;;;19.02;3.75;;;7.90;99.90;;;;;;6250363;22;20435;-78
2022/01/27 15:13:45;;;;;;;20.08;3.53;;;8.00;99.90;;;;;;6277715;22;20073;-79
2022/01/27 15:19:10;;;;;;;20.60;4.35;;;7.90;99.90;;;;;;6277801;22;20023;-78
2022/01/27 15:21:36;;;;;;;41.35;5.00;;;7.80;99.90;;;;;;6250284;22;20020;-81
2022/01/27 15:24:02;;;;;;;28.73;3.92;;;7.80;99.90;;;;;;6277321;22;20396;-79
2022/01/27 15:26:28;;;;;;;20.98;3.80;;;7.80;99.90;;;;;;6250174;22;20015;-80
2022/01/27 15:28:54;;;;;;;30.38;4.60;;;7.70;99.90;;;;;;6250141;22;20011;-79
2022/01/27 15:31:20;;;;;;;20.55;4.78;;;7.70;99.90;;;;;;6250157;22;20026;-79
2022/01/27 15:33:46;;;;;;;27.50;5.57;;;7.70;99.90;;;;;;6277219;22;20004;-79
2022/01/27 15:36:13;;;;;;;22.08;3.58;;;7.70;99.90;;;;;;6250126;22;20019;-78
2022/01/27 15:38:38;;;;;;;18.55;3.47;;;7.70;99.90;;;;;;6250121;22;20339;-80
2022/01/27 15:41:05;;;;;;;19.90;3.75;;;7.70;99.90;;;;;;6249963;22;20054;-80
2022/01/27 15:43:32;;;;;;;24.17;3.05;;;7.60;99.90;;;;;;6249600;22;20451;-80
2022/01/27 15:45:59;;;;;;;20.90;4.00;;;7.60;99.90;;;;;;6277487;22;20019;-85
2022/01/27 15:48:25;;;;;;;24.60;4.00;;;7.50;99.90;;;;;;6277280;22;20023;-79
2022/01/27 15:50:51;;;;;;;24.83;4.05;;;7.40;99.90;;;;;;6277145;22;20024;-81
2022/01/27 15:53:17;;;;;;;19.55;3.17;;;7.40;99.90;;;;;;6249954;22;20011;-84
2022/01/27 15:55:43;;;;;;;24.20;3.65;;;7.40;99.90;;;;;;6250017;22;20020;-81
2022/01/27 15:58:08;;;;;;;14.80;2.80;;;7.40;99.90;;;;;;6277296;22;20023;-81
2022/01/27 16:00:36;;;;;;;25.25;2.80;;;7.40;99.90;;;;;;6249873;22;20526;-82
2022/01/27 16:03:04;;;;;;;21.40;3.70;;;7.40;99.90;;;;;;6276894;22;20455;-83
2022/01/27 16:05:30;;;;;;;22.73;3.20;;;7.40;99.90;;;;;;6276953;22;20034;-83
2022/01/27 16:07:56;;;;;;;20.95;3.97;;;7.40;99.90;;;;;;6249485;22;20047;-83
2022/01/27 16:10:23;;;;;;;25.48;3.97;;;7.40;99.90;;;;;;6277032;22;20019;-82
2022/01/27 16:12:53;;;;;;;17.10;2.58;;;7.30;99.90;;;;;;6249814;22;20034;-81
2022/01/27 16:15:26;;;;;;;27.08;4.45;;;7.30;99.90;;;;;;6276845;22;20022;-82
2022/01/27 16:17:51;;;;;;;;;;;7.30;99.90;;;;;;6277676;22;20079;-83
2022/01/27 16:20:17;;;;;;;30.77;4.53;;;7.30;99.90;;;;;;6276659;22;19953;-82
2022/01/27 16:22:44;;;;;;;29.88;3.55;;;7.30;99.90;;;;;;6277216;22;20145;-81